Time,TemperatureF,DewpointF,PressureIn,WindDirection,WindDirectionDegrees,WindSpeedMPH,WindSpeedGustMPH,Humidity,HourlyPrecipIn,Conditions,Clouds,dailyrainin,SoftwareType,DateUTC
2013-05-10 00:01:00,53.6,53.2,29.94,WNW,294,0.0,0.0,99,0.00,,,0.00,meteohub,2013-05-10 04:01:00,
2013-05-10 00:02:00,53.4,53.1,29.94,WNW,294,0.0,0.0,99,0.00,,,0.00,meteohub,2013-05-10 04:02:00,
2013-05-10 00:03:00,53.4,53.1,29.94,WNW,294,0.0,0.0,99,0.00,,,0.00,meteohub,2013-05-10 04:03:00,
2013-05-10 00:08:00,53.2,52.9,29.94,WNW,294,0.0,0.0,99,0.00,,,0.00,meteohub,2013-05-10 04:08:00,
2013-05-10 00:13:00,53.2,52.9,29.94,WNW,294,0.0,0.0,99,0.00,,,0.00,meteohub,2013-05-10 04:13:00,
2013-05-10 00:18:00,53.1,52.7,29.94,WNW,294,0.0,0.0,99,0.00,,,0.00,meteohub,2013-05-10 04:18:00,
2013-05-10 00:23:00,52.9,52.5,29.94,WNW,294,0.0,0.0,99,0.00,,,0.00,meteohub,2013-05-10 04:23:00,
2013-05-10 00:29:00,52.9,52.5,29.94,WNW,294,0.0,0.0,99,0.00,,,0.00,meteohub,2013-05-10 04:29:00,
2013-05-10 00:34:00,52.7,52.3,29.94,WNW,294,0.0,0.0,99,0.00,,,0.00,meteohub,2013-05-10 04:34:00,
2013-05-10 00:39:00,52.5,52.2,29.94,WNW,294,0.0,0.0,99,0.00,,,0.00,meteohub,2013-05-10 04:39:00,
2013-05-10 00:44:00,52.5,52.2,29.94,WNW,294,0.0,0.0,99,0.00,,,0.00,meteohub,2013-05-10 04:44:00,
2013-05-10 00:49:00,52.3,52.0,29.94,WNW,294,0.0,0.0,99,0.00,,,0.00,meteohub,2013-05-10 04:49:00,
2013-05-10 00:54:00,52.2,51.8,29.94,WNW,294,0.0,0.0,99,0.00,,,0.00,meteohub,2013-05-10 04:54:00,
2013-05-10 00:59:00,52.0,51.6,29.93,WNW,294,0.0,0.0,99,0.00,,,0.00,meteohub,2013-05-10 04:59:00,
2013-05-10 01:05:00,52.0,51.6,29.93,WNW,294,0.0,0.0,99,0.00,,,0.00,meteohub,2013-05-10 05:05:00,
2013-05-10 01:10:00,51.8,51.4,29.94,WNW,294,0.0,0.0,99,0.00,,,0.00,meteohub,2013-05-10 05:10:00,
2013-05-10 01:15:00,51.6,51.3,29.94,WNW,294,0.0,0.0,99,0.00,,,0.00,meteohub,2013-05-10 05:15:00,
2013-05-10 01:20:00,51.4,51.1,29.94,WNW,294,0.0,0.0,99,0.00,,,0.00,meteohub,2013-05-10 05:20:00,
2013-05-10 01:25:00,51.3,50.9,29.94,WNW,294,0.0,0.0,99,0.00,,,0.00,meteohub,2013-05-10 05:25:00,
2013-05-10 01:30:00,51.3,50.9,29.93,WNW,294,0.0,0.0,99,0.00,,,0.00,meteohub,2013-05-10 05:30:00,
2013-05-10 01:35:00,51.3,50.9,29.93,WNW,294,0.0,0.0,99,0.00,,,0.00,meteohub,2013-05-10 05:35:00,
2013-05-10 01:40:00,51.1,50.7,29.93,WNW,294,0.0,0.0,99,0.00,,,0.00,meteohub,2013-05-10 05:40:00,
2013-05-10 01:46:00,51.1,50.7,29.93,WNW,294,0.0,0.0,99,0.00,,,0.00,meteohub,2013-05-10 05:46:00,
2013-05-10 01:51:00,50.9,50.5,29.93,WNW,294,0.0,0.0,99,0.00,,,0.00,meteohub,2013-05-10 05:51:00,
2013-05-10 01:56:00,50.9,50.5,29.93,WNW,294,0.0,0.0,99,0.00,,,0.00,meteohub,2013-05-10 05:56:00,
2013-05-10 02:01:00,50.9,50.5,29.93,WNW,294,0.0,0.0,99,0.00,,,0.00,meteohub,2013-05-10 06:01:00,
2013-05-10 02:06:00,50.7,50.4,29.93,WNW,294,0.0,0.0,99,0.00,,,0.00,meteohub,2013-05-10 06:06:00,
2013-05-10 02:11:00,50.7,50.4,29.93,WNW,294,0.0,0.0,99,0.00,,,0.00,meteohub,2013-05-10 06:11:00,
2013-05-10 02:16:00,50.7,50.4,29.93,WNW,294,0.0,0.0,99,0.00,,,0.00,meteohub,2013-05-10 06:16:00,
2013-05-10 02:22:00,50.5,50.2,29.93,WNW,294,0.0,0.0,99,0.00,,,0.00,meteohub,2013-05-10 06:22:00,
2013-05-10 02:27:00,50.5,50.2,29.93,WNW,294,0.0,0.0,99,0.00,,,0.00,meteohub,2013-05-10 06:27:00,
2013-05-10 02:32:00,50.5,50.2,29.93,WNW,294,0.0,0.0,99,0.00,,,0.00,meteohub,2013-05-10 06:32:00,
2013-05-10 02:37:00,50.5,50.2,29.93,WNW,294,0.0,0.0,99,0.00,,,0.00,meteohub,2013-05-10 06:37:00,
2013-05-10 02:42:00,50.4,50.0,29.93,WNW,294,0.0,0.0,99,0.00,,,0.00,meteohub,2013-05-10 06:42:00,
2013-05-10 02:47:00,50.4,50.0,29.94,WNW,294,0.0,0.0,99,0.00,,,0.00,meteohub,2013-05-10 06:47:00,
2013-05-10 02:52:00,50.2,49.8,29.94,WNW,294,0.0,0.0,99,0.00,,,0.00,meteohub,2013-05-10 06:52:00,
2013-05-10 02:57:00,50.2,49.8,29.94,WNW,294,0.0,0.0,99,0.00,,,0.00,meteohub,2013-05-10 06:57:00,
2013-05-10 03:02:00,49.8,49.5,29.94,WNW,294,0.0,0.0,99,0.00,,,0.00,meteohub,2013-05-10 07:02:00,
2013-05-10 03:07:00,49.8,49.5,29.94,WNW,294,0.0,0.0,99,0.00,,,0.00,meteohub,2013-05-10 07:07:00,
2013-05-10 03:12:00,49.8,49.5,29.94,WNW,294,0.0,0.0,99,0.00,,,0.00,meteohub,2013-05-10 07:12:00,
2013-05-10 03:17:00,49.6,49.5,29.94,WNW,294,0.0,0.0,99,0.00,,,0.00,meteohub,2013-05-10 07:17:00,
2013-05-10 03:22:00,49.6,49.5,29.94,WNW,294,0.0,0.0,99,0.00,,,0.00,meteohub,2013-05-10 07:22:00,
2013-05-10 03:27:00,49.6,49.5,29.94,WNW,294,0.0,0.0,99,0.00,,,0.00,meteohub,2013-05-10 07:27:00,
2013-05-10 03:32:00,49.6,49.5,29.94,WNW,294,0.0,0.0,99,0.00,,,0.00,meteohub,2013-05-10 07:32:00,
2013-05-10 03:37:00,49.6,49.5,29.94,WNW,294,0.0,0.0,99,0.00,,,0.00,meteohub,2013-05-10 07:37:00,
2013-05-10 03:42:00,49.5,49.3,29.94,WNW,294,0.0,0.0,99,0.00,,,0.00,meteohub,2013-05-10 07:42:00,
2013-05-10 03:47:00,49.5,49.3,29.94,WNW,294,0.0,0.0,99,0.00,,,0.00,meteohub,2013-05-10 07:47:00,
2013-05-10 03:52:00,49.5,49.3,29.93,WNW,294,0.0,0.0,99,0.00,,,0.00,meteohub,2013-05-10 07:52:00,
2013-05-10 03:57:00,49.5,49.3,29.94,WNW,294,0.0,0.0,99,0.00,,,0.00,meteohub,2013-05-10 07:57:00,
2013-05-10 04:02:00,49.5,49.3,29.94,WNW,294,0.0,0.0,99,0.00,,,0.00,meteohub,2013-05-10 08:02:00,
2013-05-10 04:07:00,49.5,49.3,29.94,WNW,294,0.0,0.0,99,0.00,,,0.00,meteohub,2013-05-10 08:07:00,
2013-05-10 04:12:00,49.5,49.3,29.94,WNW,294,0.0,0.0,99,0.00,,,0.00,meteohub,2013-05-10 08:12:00,
2013-05-10 04:17:00,49.3,49.1,29.94,WNW,294,0.0,0.0,99,0.00,,,0.00,meteohub,2013-05-10 08:17:00,
2013-05-10 04:22:00,49.3,49.1,29.94,WNW,294,0.0,0.0,99,0.00,,,0.00,meteohub,2013-05-10 08:22:00,
2013-05-10 04:27:00,49.1,48.9,29.94,WNW,294,0.0,0.0,99,0.00,,,0.00,meteohub,2013-05-10 08:27:00,
2013-05-10 04:32:00,48.9,48.7,29.94,WNW,294,0.0,0.0,99,0.00,,,0.00,meteohub,2013-05-10 08:32:00,
2013-05-10 04:37:00,48.7,48.6,29.94,WNW,294,0.0,0.0,99,0.00,,,0.00,meteohub,2013-05-10 08:37:00,
2013-05-10 04:42:00,48.6,48.4,29.95,WNW,294,0.0,0.0,99,0.00,,,0.00,meteohub,2013-05-10 08:42:00,
2013-05-10 04:47:00,48.6,48.4,29.95,WNW,294,0.0,0.0,99,0.00,,,0.00,meteohub,2013-05-10 08:47:00,
2013-05-10 04:52:00,48.4,48.2,29.95,WNW,294,0.0,0.0,99,0.00,,,0.00,meteohub,2013-05-10 08:52:00,
2013-05-10 04:57:00,48.2,48.0,29.95,WNW,294,0.0,0.0,99,0.00,,,0.00,meteohub,2013-05-10 08:57:00,
2013-05-10 05:02:00,48.0,47.8,29.95,WNW,294,0.0,0.0,99,0.00,,,0.00,meteohub,2013-05-10 09:02:00,
2013-05-10 05:07:00,48.0,47.8,29.94,WNW,294,0.0,0.0,99,0.00,,,0.00,meteohub,2013-05-10 09:07:00,
2013-05-10 05:12:00,47.8,47.7,29.94,WNW,294,0.0,0.0,99,0.00,,,0.00,meteohub,2013-05-10 09:12:00,
2013-05-10 05:17:00,47.8,47.7,29.94,WNW,294,0.0,0.0,99,0.00,,,0.00,meteohub,2013-05-10 09:17:00,
2013-05-10 05:22:00,47.8,47.7,29.94,WNW,294,0.0,0.0,99,0.00,,,0.00,meteohub,2013-05-10 09:22:00,
2013-05-10 05:27:00,47.8,47.7,29.94,WNW,294,0.0,0.0,99,0.00,,,0.00,meteohub,2013-05-10 09:27:00,
2013-05-10 05:32:00,47.8,47.7,29.94,WNW,294,0.0,0.0,99,0.00,,,0.00,meteohub,2013-05-10 09:32:00,
2013-05-10 05:37:00,47.8,47.7,29.95,WNW,294,0.0,0.0,99,0.00,,,0.00,meteohub,2013-05-10 09:37:00,
2013-05-10 05:42:00,47.8,47.7,29.95,WNW,294,0.0,0.0,99,0.00,,,0.00,meteohub,2013-05-10 09:42:00,
2013-05-10 05:47:00,47.7,47.5,29.95,WNW,294,0.0,0.0,99,0.00,,,0.00,meteohub,2013-05-10 09:47:00,
2013-05-10 05:52:00,47.7,47.5,29.95,WNW,294,0.0,0.0,99,0.00,,,0.00,meteohub,2013-05-10 09:52:00,
2013-05-10 05:57:00,47.7,47.5,29.95,WNW,294,0.0,0.0,99,0.00,,,0.00,meteohub,2013-05-10 09:57:00,
2013-05-10 06:02:00,47.7,47.5,29.96,WNW,294,0.0,0.0,99,0.00,,,0.00,meteohub,2013-05-10 10:02:00,
2013-05-10 06:07:00,47.8,47.7,29.96,WNW,294,0.0,0.0,99,0.00,,,0.00,meteohub,2013-05-10 10:07:00,
2013-05-10 06:12:00,47.8,47.7,29.96,WNW,294,0.0,0.0,99,0.00,,,0.00,meteohub,2013-05-10 10:12:00,
2013-05-10 06:17:00,48.0,47.8,29.96,WNW,294,0.0,0.0,99,0.00,,,0.00,meteohub,2013-05-10 10:17:00,
2013-05-10 06:22:00,48.4,48.2,29.96,WNW,294,0.0,0.0,99,0.00,,,0.00,meteohub,2013-05-10 10:22:00,
2013-05-10 06:27:00,49.3,49.1,29.96,WNW,294,0.0,0.0,99,0.00,,,0.00,meteohub,2013-05-10 10:27:00,
2013-05-10 06:32:00,49.8,49.8,29.97,WNW,294,0.0,0.0,100,0.00,,,0.00,meteohub,2013-05-10 10:32:00,
2013-05-10 06:37:00,50.2,50.2,29.97,WNW,294,0.0,0.0,100,0.00,,,0.00,meteohub,2013-05-10 10:37:00,
2013-05-10 06:42:00,50.4,50.4,29.97,WNW,294,0.0,0.0,100,0.00,,,0.00,meteohub,2013-05-10 10:42:00,
2013-05-10 06:47:00,50.2,49.8,29.97,WNW,294,0.0,0.0,99,0.00,,,0.00,meteohub,2013-05-10 10:47:00,
2013-05-10 06:52:00,50.4,50.0,29.98,WNW,294,0.0,0.0,99,0.00,,,0.00,meteohub,2013-05-10 10:52:00,
2013-05-10 06:54:00,50.7,50.7,29.98,WNW,294,0.0,0.0,100,0.00,,,0.00,meteohub,2013-05-10 10:54:00,
2013-05-10 06:57:00,51.3,51.3,29.98,WNW,294,0.0,0.0,100,0.00,,,0.00,meteohub,2013-05-10 10:57:00,
2013-05-10 07:02:00,52.2,52.2,29.98,WNW,294,0.0,0.0,100,0.00,,,0.00,meteohub,2013-05-10 11:02:00,
2013-05-10 07:07:00,52.5,52.5,29.98,WNW,294,0.0,0.0,100,0.00,,,0.00,meteohub,2013-05-10 11:07:00,
2013-05-10 07:12:00,53.1,53.1,29.98,WNW,294,0.0,0.0,100,0.00,,,0.00,meteohub,2013-05-10 11:12:00,
2013-05-10 07:17:00,54.3,54.3,29.98,WNW,294,0.0,0.0,100,0.00,,,0.00,meteohub,2013-05-10 11:17:00,
2013-05-10 07:22:00,55.0,55.0,29.98,WNW,294,0.0,0.0,100,0.00,,,0.00,meteohub,2013-05-10 11:22:00,
2013-05-10 07:27:00,55.9,55.9,29.98,WNW,294,0.0,0.0,100,0.00,,,0.00,meteohub,2013-05-10 11:27:00,
2013-05-10 07:32:00,56.1,56.1,29.99,WNW,294,0.0,0.0,100,0.00,,,0.00,meteohub,2013-05-10 11:32:00,
2013-05-10 07:37:00,56.5,56.5,29.99,WNW,294,0.0,0.0,100,0.00,,,0.00,meteohub,2013-05-10 11:37:00,
2013-05-10 07:42:00,56.5,56.5,29.99,WNW,294,0.0,0.0,100,0.00,,,0.00,meteohub,2013-05-10 11:42:00,
2013-05-10 07:47:00,56.7,56.7,29.99,WNW,294,0.0,0.0,100,0.00,,,0.00,meteohub,2013-05-10 11:47:00,
2013-05-10 07:52:00,57.6,57.6,29.99,WNW,294,0.0,0.0,100,0.00,,,0.00,meteohub,2013-05-10 11:52:00,
2013-05-10 07:57:00,58.8,58.8,29.99,WNW,294,0.0,0.0,100,0.00,,,0.00,meteohub,2013-05-10 11:57:00,
2013-05-10 08:02:00,59.4,59.4,29.99,WNW,294,0.0,0.0,100,0.00,,,0.00,meteohub,2013-05-10 12:02:00,
2013-05-10 08:07:00,59.4,59.4,29.99,WNW,294,0.0,0.0,100,0.00,,,0.00,meteohub,2013-05-10 12:07:00,
2013-05-10 08:12:00,59.5,59.5,29.99,WNW,294,0.0,0.0,100,0.00,,,0.00,meteohub,2013-05-10 12:12:00,
2013-05-10 08:18:00,60.1,60.1,29.99,WNW,294,0.0,0.0,100,0.00,,,0.00,meteohub,2013-05-10 12:18:00,
2013-05-10 08:23:00,60.4,60.4,29.99,WNW,294,0.0,0.0,100,0.00,,,0.00,meteohub,2013-05-10 12:23:00,
2013-05-10 08:28:00,60.4,60.4,29.99,WNW,294,0.0,0.0,100,0.00,,,0.00,meteohub,2013-05-10 12:28:00,
2013-05-10 08:33:00,60.6,60.6,29.99,WNW,294,0.0,0.0,100,0.00,,,0.00,meteohub,2013-05-10 12:33:00,
2013-05-10 08:38:00,61.7,61.3,29.99,WNW,294,0.0,0.0,99,0.00,,,0.00,meteohub,2013-05-10 12:38:00,
2013-05-10 08:43:00,63.0,62.6,29.99,WNW,294,0.0,0.0,99,0.00,,,0.00,meteohub,2013-05-10 12:43:00,
2013-05-10 08:49:00,63.0,61.9,29.99,WNW,294,0.0,0.0,96,0.00,,,0.00,meteohub,2013-05-10 12:49:00,
2013-05-10 08:54:00,62.6,60.6,29.99,WNW,294,0.0,0.0,93,0.00,,,0.00,meteohub,2013-05-10 12:54:00,
2013-05-10 08:59:00,63.0,61.9,29.99,WNW,294,0.0,0.0,96,0.00,,,0.00,meteohub,2013-05-10 12:59:00,
2013-05-10 09:04:00,63.1,61.2,29.99,WNW,294,0.0,0.0,93,0.00,,,0.00,meteohub,2013-05-10 13:04:00,
2013-05-10 09:09:00,63.7,61.3,29.99,WNW,294,0.0,0.0,92,0.00,,,0.00,meteohub,2013-05-10 13:09:00,
2013-05-10 09:14:00,64.0,62.6,29.99,WNW,294,0.0,0.0,95,0.00,,,0.00,meteohub,2013-05-10 13:14:00,
2013-05-10 09:19:00,65.5,64.0,29.98,WNW,294,0.0,0.0,95,0.00,,,0.00,meteohub,2013-05-10 13:19:00,
2013-05-10 09:25:00,66.6,64.2,29.99,WNW,294,0.0,0.0,92,0.00,,,0.00,meteohub,2013-05-10 13:25:00,
2013-05-10 09:30:00,67.3,63.9,29.98,WNW,294,0.0,0.0,89,0.00,,,0.00,meteohub,2013-05-10 13:30:00,
2013-05-10 09:35:00,68.2,63.9,29.98,WNW,294,0.0,0.0,86,0.00,,,0.00,meteohub,2013-05-10 13:35:00,
2013-05-10 09:40:00,68.5,62.4,29.98,WNW,294,0.0,0.0,81,0.00,,,0.00,meteohub,2013-05-10 13:40:00,
2013-05-10 09:45:00,69.3,64.9,29.98,WNW,294,0.0,0.0,86,0.00,,,0.00,meteohub,2013-05-10 13:45:00,
2013-05-10 09:50:00,70.0,63.5,29.98,WNW,294,0.0,0.0,80,0.00,,,0.00,meteohub,2013-05-10 13:50:00,
2013-05-10 09:55:00,70.5,62.2,29.98,WNW,294,0.0,0.0,75,0.00,,,0.00,meteohub,2013-05-10 13:55:00,
2013-05-10 10:01:00,70.2,61.5,29.99,WNW,294,0.0,0.0,74,0.00,,,0.00,meteohub,2013-05-10 14:01:00,
2013-05-10 10:06:00,70.0,61.7,29.98,WNW,294,0.0,0.0,75,0.00,,,0.00,meteohub,2013-05-10 14:06:00,
2013-05-10 10:11:00,70.5,63.3,29.98,WNW,294,0.0,0.0,78,0.00,,,0.00,meteohub,2013-05-10 14:11:00,
2013-05-10 10:16:00,71.4,62.8,29.98,WNW,294,0.0,0.0,74,0.00,,,0.00,meteohub,2013-05-10 14:16:00,
2013-05-10 10:21:00,71.6,62.4,29.98,WNW,294,0.0,0.0,73,0.00,,,0.00,meteohub,2013-05-10 14:21:00,
2013-05-10 10:26:00,72.0,62.1,29.98,WNW,294,0.0,0.0,71,0.00,,,0.00,meteohub,2013-05-10 14:26:00,
2013-05-10 10:31:00,72.0,63.7,29.99,WNW,294,0.0,0.0,75,0.00,,,0.00,meteohub,2013-05-10 14:31:00,
2013-05-10 10:37:00,72.1,62.6,29.99,WNW,294,0.0,0.0,72,0.00,,,0.00,meteohub,2013-05-10 14:37:00,
2013-05-10 10:42:00,73.0,63.9,29.99,WNW,294,0.0,0.0,73,0.00,,,0.00,meteohub,2013-05-10 14:42:00,
2013-05-10 10:47:00,73.0,60.1,29.98,WNW,294,0.0,0.0,64,0.00,,,0.00,meteohub,2013-05-10 14:47:00,
2013-05-10 10:52:00,72.5,60.1,29.98,WNW,294,0.0,0.0,65,0.00,,,0.00,meteohub,2013-05-10 14:52:00,
2013-05-10 10:57:00,72.5,61.3,29.98,WNW,294,0.0,0.0,68,0.00,,,0.00,meteohub,2013-05-10 14:57:00,
2013-05-10 11:02:00,72.9,60.4,29.98,WNW,294,0.0,0.0,65,0.00,,,0.00,meteohub,2013-05-10 15:02:00,
2013-05-10 11:07:00,73.2,59.9,29.98,WNW,294,0.0,0.0,63,0.00,,,0.00,meteohub,2013-05-10 15:07:00,
2013-05-10 11:12:00,73.9,62.8,29.98,WNW,294,0.0,0.0,68,0.00,,,0.00,meteohub,2013-05-10 15:12:00,
2013-05-10 11:17:00,73.8,60.8,29.97,WNW,294,0.0,0.0,64,0.00,,,0.00,meteohub,2013-05-10 15:17:00,
2013-05-10 11:22:00,74.1,57.9,29.97,WNW,294,0.0,0.0,57,0.00,,,0.00,meteohub,2013-05-10 15:22:00,
2013-05-10 11:27:00,74.1,59.7,29.97,WNW,294,0.0,0.0,61,0.00,,,0.00,meteohub,2013-05-10 15:27:00,
2013-05-10 11:32:00,74.7,60.8,29.97,WNW,294,0.0,0.0,62,0.00,,,0.00,meteohub,2013-05-10 15:32:00,
2013-05-10 11:37:00,75.0,57.2,29.97,WNW,294,0.0,0.0,54,0.00,,,0.00,meteohub,2013-05-10 15:37:00,
2013-05-10 11:42:00,75.4,59.0,29.97,WNW,294,0.0,0.0,57,0.00,,,0.00,meteohub,2013-05-10 15:42:00,
2013-05-10 11:47:00,75.6,62.6,29.97,WNW,294,0.0,0.0,64,0.00,,,0.00,meteohub,2013-05-10 15:47:00,
2013-05-10 11:52:00,75.6,63.0,29.97,WNW,294,0.0,0.0,65,0.00,,,0.00,meteohub,2013-05-10 15:52:00,
2013-05-10 11:57:00,74.7,60.8,29.97,WNW,294,0.0,0.0,62,0.00,,,0.00,meteohub,2013-05-10 15:57:00,
2013-05-10 12:02:00,74.3,63.5,29.97,WNW,294,0.0,0.0,69,0.00,,,0.00,meteohub,2013-05-10 16:02:00,
2013-05-10 12:07:00,74.7,61.7,29.97,WNW,294,0.0,0.0,64,0.00,,,0.00,meteohub,2013-05-10 16:07:00,
2013-05-10 12:12:00,74.7,60.8,29.96,WNW,294,0.0,0.0,62,0.00,,,0.00,meteohub,2013-05-10 16:12:00,
2013-05-10 12:17:00,74.8,60.4,29.96,WNW,294,0.0,0.0,61,0.00,,,0.00,meteohub,2013-05-10 16:17:00,
2013-05-10 12:22:00,75.4,61.0,29.96,WNW,294,0.0,0.0,61,0.00,,,0.00,meteohub,2013-05-10 16:22:00,
2013-05-10 12:27:00,75.9,61.0,29.96,WNW,294,0.0,0.0,60,0.00,,,0.00,meteohub,2013-05-10 16:27:00,
2013-05-10 12:32:00,76.3,63.1,29.96,WNW,294,0.0,0.0,64,0.00,,,0.00,meteohub,2013-05-10 16:32:00,
2013-05-10 12:37:00,76.3,61.9,29.96,WNW,294,0.0,0.0,61,0.00,,,0.00,meteohub,2013-05-10 16:37:00,
2013-05-10 12:42:00,76.3,61.0,29.96,WNW,294,0.0,0.0,59,0.00,,,0.00,meteohub,2013-05-10 16:42:00,
2013-05-10 12:47:00,75.0,60.3,29.96,WNW,294,0.0,0.0,60,0.00,,,0.00,meteohub,2013-05-10 16:47:00,
2013-05-10 12:52:00,74.8,59.0,29.96,WNW,294,0.0,0.0,58,0.00,,,0.00,meteohub,2013-05-10 16:52:00,
2013-05-10 12:57:00,74.7,59.9,29.96,WNW,294,0.0,0.0,60,0.00,,,0.00,meteohub,2013-05-10 16:57:00,
2013-05-10 13:02:00,74.8,60.4,29.96,WNW,294,0.0,0.0,61,0.00,,,0.00,meteohub,2013-05-10 17:02:00,
2013-05-10 13:07:00,75.2,61.3,29.97,WNW,294,0.0,0.0,62,0.00,,,0.00,meteohub,2013-05-10 17:07:00,
2013-05-10 13:12:00,75.4,60.1,29.97,WNW,294,0.0,0.0,59,0.00,,,0.00,meteohub,2013-05-10 17:12:00,
2013-05-10 13:17:00,75.6,60.3,29.96,WNW,294,0.0,0.0,59,0.00,,,0.00,meteohub,2013-05-10 17:17:00,
2013-05-10 13:22:00,75.4,59.0,29.96,WNW,294,0.0,0.0,57,0.00,,,0.00,meteohub,2013-05-10 17:22:00,
2013-05-10 13:27:00,75.2,59.9,29.96,WNW,294,0.0,0.0,59,0.00,,,0.00,meteohub,2013-05-10 17:27:00,
2013-05-10 13:32:00,74.8,57.6,29.96,WNW,294,0.0,0.0,55,0.00,,,0.00,meteohub,2013-05-10 17:32:00,
2013-05-10 13:37:00,74.5,59.2,29.96,WNW,294,0.0,0.0,59,0.00,,,0.00,meteohub,2013-05-10 17:37:00,
2013-05-10 13:42:00,74.3,58.1,29.97,WNW,294,0.0,0.0,57,0.00,,,0.00,meteohub,2013-05-10 17:42:00,
2013-05-10 13:47:00,73.9,57.2,29.97,WNW,294,0.0,0.0,56,0.00,,,0.00,meteohub,2013-05-10 17:47:00,
2013-05-10 13:53:00,73.9,57.2,29.97,WNW,294,0.0,0.0,56,0.00,,,0.00,meteohub,2013-05-10 17:53:00,
2013-05-10 13:58:00,74.7,56.8,29.97,WNW,294,0.0,0.0,54,0.00,,,0.00,meteohub,2013-05-10 17:58:00,
2013-05-10 14:03:00,74.8,55.6,29.96,WNW,294,0.0,0.0,51,0.00,,,0.00,meteohub,2013-05-10 18:03:00,
2013-05-10 14:08:00,75.0,55.0,29.96,WNW,294,0.0,0.0,50,0.00,,,0.00,meteohub,2013-05-10 18:08:00,
2013-05-10 14:13:00,75.6,57.2,29.96,WNW,294,0.0,0.0,53,0.00,,,0.00,meteohub,2013-05-10 18:13:00,
2013-05-10 14:18:00,76.6,53.8,29.96,WNW,294,0.0,0.0,45,0.00,,,0.00,meteohub,2013-05-10 18:18:00,
2013-05-10 14:23:00,77.2,55.4,29.96,WNW,294,0.0,0.0,47,0.00,,,0.00,meteohub,2013-05-10 18:23:00,
2013-05-10 14:29:00,77.4,53.1,29.96,WNW,294,0.0,0.0,43,0.00,,,0.00,meteohub,2013-05-10 18:29:00,
2013-05-10 14:34:00,77.4,55.6,29.96,WNW,294,0.0,0.0,47,0.00,,,0.00,meteohub,2013-05-10 18:34:00,
2013-05-10 14:39:00,77.5,53.2,29.96,WNW,294,0.0,0.0,43,0.00,,,0.00,meteohub,2013-05-10 18:39:00,
2013-05-10 14:44:00,77.2,52.3,29.96,WNW,294,0.0,0.0,42,0.00,,,0.00,meteohub,2013-05-10 18:44:00,
2013-05-10 14:49:00,77.2,54.9,29.96,WNW,294,0.0,0.0,46,0.00,,,0.00,meteohub,2013-05-10 18:49:00,
2013-05-10 14:54:00,77.5,55.8,29.96,WNW,294,0.0,0.0,47,0.00,,,0.00,meteohub,2013-05-10 18:54:00,
2013-05-10 14:59:00,77.4,55.0,29.96,WNW,294,0.0,0.0,46,0.00,,,0.00,meteohub,2013-05-10 18:59:00,
2013-05-10 15:05:00,77.4,56.1,29.95,WNW,294,0.0,0.0,48,0.00,,,0.00,meteohub,2013-05-10 19:05:00,
2013-05-10 15:10:00,77.4,56.1,29.95,WNW,294,0.0,0.0,48,0.00,,,0.00,meteohub,2013-05-10 19:10:00,
2013-05-10 15:15:00,77.5,55.8,29.95,WNW,294,0.0,0.0,47,0.00,,,0.00,meteohub,2013-05-10 19:15:00,
2013-05-10 15:20:00,77.4,56.7,29.95,WNW,294,0.0,0.0,49,0.00,,,0.00,meteohub,2013-05-10 19:20:00,
2013-05-10 15:25:00,76.5,55.4,29.95,WNW,294,0.0,0.0,48,0.00,,,0.00,meteohub,2013-05-10 19:25:00,
2013-05-10 15:30:00,75.9,55.9,29.95,WNW,294,0.0,0.0,50,0.00,,,0.00,meteohub,2013-05-10 19:30:00,
2013-05-10 15:36:00,75.7,55.2,29.95,WNW,294,0.0,0.0,49,0.00,,,0.00,meteohub,2013-05-10 19:36:00,
2013-05-10 15:41:00,75.9,58.6,29.95,WNW,294,0.0,0.0,55,0.00,,,0.00,meteohub,2013-05-10 19:41:00,
2013-05-10 15:46:00,76.3,56.3,29.95,WNW,294,0.0,0.0,50,0.00,,,0.00,meteohub,2013-05-10 19:46:00,
2013-05-10 15:51:00,76.1,54.3,29.95,WNW,294,0.0,0.0,47,0.00,,,0.00,meteohub,2013-05-10 19:51:00,
2013-05-10 15:56:00,76.1,56.1,29.94,WNW,294,0.0,0.0,50,0.00,,,0.00,meteohub,2013-05-10 19:56:00,
2013-05-10 16:01:00,76.3,55.2,29.95,WNW,294,0.0,0.0,48,0.00,,,0.00,meteohub,2013-05-10 20:01:00,
2013-05-10 16:06:00,76.5,55.9,29.95,WNW,294,0.0,0.0,49,0.00,,,0.00,meteohub,2013-05-10 20:06:00,
2013-05-10 16:12:00,76.5,57.6,29.95,WNW,294,0.0,0.0,52,0.00,,,0.00,meteohub,2013-05-10 20:12:00,
2013-05-10 16:17:00,76.3,56.8,29.94,WNW,294,0.0,0.0,51,0.00,,,0.00,meteohub,2013-05-10 20:17:00,
2013-05-10 16:22:00,75.7,56.3,29.94,WNW,294,0.0,0.0,51,0.00,,,0.00,meteohub,2013-05-10 20:22:00,
2013-05-10 16:27:00,75.6,56.1,29.94,WNW,294,0.0,0.0,51,0.00,,,0.00,meteohub,2013-05-10 20:27:00,
2013-05-10 16:32:00,75.2,57.9,29.94,WNW,294,0.0,0.0,55,0.00,,,0.00,meteohub,2013-05-10 20:32:00,
2013-05-10 16:37:00,75.0,56.7,29.94,WNW,294,0.0,0.0,53,0.00,,,0.00,meteohub,2013-05-10 20:37:00,
2013-05-10 16:42:00,74.8,58.6,29.95,WNW,294,0.0,0.0,57,0.00,,,0.00,meteohub,2013-05-10 20:42:00,
2013-05-10 16:47:00,74.8,56.1,29.95,WNW,294,0.0,0.0,52,0.00,,,0.00,meteohub,2013-05-10 20:47:00,
2013-05-10 16:52:00,74.7,57.4,29.94,WNW,294,0.0,0.0,55,0.00,,,0.00,meteohub,2013-05-10 20:52:00,
2013-05-10 16:57:00,74.5,57.7,29.94,WNW,294,0.0,0.0,56,0.00,,,0.00,meteohub,2013-05-10 20:57:00,
2013-05-10 17:02:00,74.7,56.5,29.94,WNW,294,0.0,0.0,53,0.00,,,0.00,meteohub,2013-05-10 21:02:00,
2013-05-10 17:07:00,74.3,56.7,29.94,WNW,294,0.0,0.0,54,0.00,,,0.00,meteohub,2013-05-10 21:07:00,
2013-05-10 17:12:00,73.9,55.8,29.94,WNW,294,0.0,0.0,53,0.00,,,0.00,meteohub,2013-05-10 21:12:00,
2013-05-10 17:17:00,73.6,55.4,29.94,WNW,294,0.0,0.0,53,0.00,,,0.00,meteohub,2013-05-10 21:17:00,
2013-05-10 17:22:00,73.6,57.4,29.94,WNW,294,0.0,0.0,57,0.00,,,0.00,meteohub,2013-05-10 21:22:00,
2013-05-10 17:27:00,73.2,57.0,29.94,WNW,294,0.0,0.0,57,0.00,,,0.00,meteohub,2013-05-10 21:27:00,
2013-05-10 17:32:00,73.0,55.9,29.94,WNW,294,0.0,0.0,55,0.00,,,0.00,meteohub,2013-05-10 21:32:00,
2013-05-10 17:37:00,72.9,55.8,29.94,WNW,294,0.0,0.0,55,0.00,,,0.00,meteohub,2013-05-10 21:37:00,
2013-05-10 17:41:00,72.5,56.8,29.94,WNW,294,0.0,0.0,58,0.00,,,0.00,meteohub,2013-05-10 21:41:00,
2013-05-10 17:47:00,72.3,56.3,29.94,WNW,294,0.0,0.0,57,0.00,,,0.00,meteohub,2013-05-10 21:47:00,
2013-05-10 17:52:00,72.1,56.5,29.94,WNW,294,0.0,0.0,58,0.00,,,0.00,meteohub,2013-05-10 21:52:00,
2013-05-10 17:57:00,72.0,57.7,29.94,WNW,294,0.0,0.0,61,0.00,,,0.00,meteohub,2013-05-10 21:57:00,
2013-05-10 17:58:00,72.0,56.8,29.94,WNW,294,0.0,0.0,59,0.00,,,0.00,meteohub,2013-05-10 21:58:00,
2013-05-10 17:59:00,71.8,56.1,29.94,WNW,294,0.0,0.0,58,0.00,,,0.00,meteohub,2013-05-10 21:59:00,
2013-05-10 18:01:00,71.8,56.7,29.94,WNW,294,0.0,0.0,59,0.00,,,0.00,meteohub,2013-05-10 22:01:00,
2013-05-10 18:02:00,71.8,56.1,29.94,WNW,294,0.0,0.0,58,0.00,,,0.00,meteohub,2013-05-10 22:02:00,
2013-05-10 18:07:00,71.4,55.9,29.94,WNW,294,0.0,0.0,58,0.00,,,0.00,meteohub,2013-05-10 22:07:00,
2013-05-10 18:12:00,71.2,55.8,29.94,WNW,294,0.0,0.0,58,0.00,,,0.00,meteohub,2013-05-10 22:12:00,
2013-05-10 18:17:00,71.1,56.5,29.94,WNW,294,0.0,0.0,60,0.00,,,0.00,meteohub,2013-05-10 22:17:00,
2013-05-10 18:22:00,70.7,57.0,29.94,WNW,294,0.0,0.0,62,0.00,,,0.00,meteohub,2013-05-10 22:22:00,
2013-05-10 18:27:00,70.3,56.7,29.94,WNW,294,0.0,0.0,62,0.00,,,0.00,meteohub,2013-05-10 22:27:00,
2013-05-10 18:32:00,70.2,57.0,29.94,WNW,294,0.0,0.0,63,0.00,,,0.00,meteohub,2013-05-10 22:32:00,
2013-05-10 18:37:00,70.0,57.2,29.94,WNW,294,0.0,0.0,64,0.00,,,0.00,meteohub,2013-05-10 22:37:00,
2013-05-10 18:42:00,69.6,57.4,29.94,WNW,294,0.0,0.0,65,0.00,,,0.00,meteohub,2013-05-10 22:42:00,
2013-05-10 18:47:00,69.4,58.5,29.94,WNW,294,0.0,0.0,68,0.00,,,0.00,meteohub,2013-05-10 22:47:00,
2013-05-10 18:52:00,69.1,57.7,29.94,WNW,294,0.0,0.0,67,0.00,,,0.00,meteohub,2013-05-10 22:52:00,
2013-05-10 18:57:00,68.5,56.3,29.94,WNW,294,0.0,0.0,65,0.00,,,0.00,meteohub,2013-05-10 22:57:00,
2013-05-10 19:02:00,68.2,56.8,29.95,WNW,294,0.0,0.0,67,0.00,,,0.00,meteohub,2013-05-10 23:02:00,
2013-05-10 19:07:00,67.6,56.3,29.95,WNW,294,0.0,0.0,67,0.00,,,0.00,meteohub,2013-05-10 23:07:00,
2013-05-10 19:12:00,67.3,56.3,29.95,WNW,294,0.0,0.0,68,0.00,,,0.00,meteohub,2013-05-10 23:12:00,
2013-05-10 19:17:00,66.9,56.8,29.95,WNW,294,0.0,0.0,70,0.00,,,0.00,meteohub,2013-05-10 23:17:00,
2013-05-10 19:22:00,66.6,56.8,29.96,WNW,294,0.0,0.0,71,0.00,,,0.00,meteohub,2013-05-10 23:22:00,
2013-05-10 19:27:00,66.2,56.8,29.95,WNW,294,0.0,0.0,72,0.00,,,0.00,meteohub,2013-05-10 23:27:00,
2013-05-10 19:32:00,65.8,57.0,29.95,WNW,294,0.0,0.0,73,0.00,,,0.00,meteohub,2013-05-10 23:32:00,
2013-05-10 19:37:00,65.7,56.8,29.95,WNW,294,0.0,0.0,73,0.00,,,0.00,meteohub,2013-05-10 23:37:00,
2013-05-10 19:42:00,65.3,56.8,29.96,WNW,294,0.0,0.0,74,0.00,,,0.00,meteohub,2013-05-10 23:42:00,
2013-05-10 19:47:00,64.9,56.5,29.96,WNW,294,0.0,0.0,74,0.00,,,0.00,meteohub,2013-05-10 23:47:00,
2013-05-10 19:52:00,64.8,56.3,29.95,WNW,294,0.0,0.0,74,0.00,,,0.00,meteohub,2013-05-10 23:52:00,
2013-05-10 19:57:00,64.4,56.3,29.95,WNW,294,0.0,0.0,75,0.00,,,0.00,meteohub,2013-05-10 23:57:00,
2013-05-10 20:02:00,64.2,56.1,29.95,WNW,294,0.0,0.0,75,0.00,,,0.00,meteohub,2013-05-11 00:02:00,
2013-05-10 20:07:00,64.0,56.7,29.95,WNW,294,0.0,0.0,77,0.00,,,0.00,meteohub,2013-05-11 00:07:00,
2013-05-10 20:12:00,63.9,56.5,29.95,WNW,294,0.0,0.0,77,0.00,,,0.00,meteohub,2013-05-11 00:12:00,
2013-05-10 20:17:00,63.7,56.3,29.94,WNW,294,0.0,0.0,77,0.00,,,0.00,meteohub,2013-05-11 00:17:00,
2013-05-10 20:22:00,63.3,56.3,29.94,WNW,294,0.0,0.0,78,0.00,,,0.00,meteohub,2013-05-11 00:22:00,
2013-05-10 20:27:00,63.1,56.1,29.94,WNW,294,0.0,0.0,78,0.00,,,0.00,meteohub,2013-05-11 00:27:00,
2013-05-10 20:32:00,63.0,56.3,29.95,WNW,294,0.0,0.0,79,0.00,,,0.00,meteohub,2013-05-11 00:32:00,
2013-05-10 20:37:00,62.8,56.1,29.95,WNW,294,0.0,0.0,79,0.00,,,0.00,meteohub,2013-05-11 00:37:00,
2013-05-10 20:42:00,62.4,55.8,29.95,WNW,294,0.0,0.0,79,0.00,,,0.00,meteohub,2013-05-11 00:42:00,
2013-05-10 20:47:00,62.4,56.1,29.95,WNW,294,0.0,0.0,80,0.00,,,0.00,meteohub,2013-05-11 00:47:00,
2013-05-10 20:52:00,62.2,56.3,29.95,WNW,294,0.0,0.0,81,0.00,,,0.00,meteohub,2013-05-11 00:52:00,
2013-05-10 20:57:00,62.1,56.1,29.95,WNW,294,0.0,0.0,81,0.00,,,0.00,meteohub,2013-05-11 00:57:00,
2013-05-10 21:02:00,61.9,55.9,29.95,WNW,294,0.0,0.0,81,0.00,,,0.00,meteohub,2013-05-11 01:02:00,
2013-05-10 21:07:00,61.5,55.9,29.95,WNW,294,0.0,0.0,82,0.00,,,0.00,meteohub,2013-05-11 01:07:00,
2013-05-10 21:12:00,61.3,56.1,29.95,WNW,294,0.0,0.0,83,0.00,,,0.00,meteohub,2013-05-11 01:12:00,
2013-05-10 21:17:00,61.2,56.3,29.95,WNW,294,0.0,0.0,84,0.00,,,0.00,meteohub,2013-05-11 01:17:00,
2013-05-10 21:22:00,61.0,56.5,29.95,WNW,294,0.0,0.0,85,0.00,,,0.00,meteohub,2013-05-11 01:22:00,
2013-05-10 21:27:00,60.8,56.3,29.95,WNW,294,0.0,0.0,85,0.00,,,0.00,meteohub,2013-05-11 01:27:00,
2013-05-10 21:32:00,60.6,56.1,29.95,WNW,294,0.0,0.0,85,0.00,,,0.00,meteohub,2013-05-11 01:32:00,
2013-05-10 21:37:00,60.4,56.3,29.95,WNW,294,0.0,0.0,86,0.00,,,0.00,meteohub,2013-05-11 01:37:00,
2013-05-10 21:42:00,60.3,55.8,29.96,WNW,294,0.0,0.0,85,0.00,,,0.00,meteohub,2013-05-11 01:42:00,
2013-05-10 21:47:00,60.1,55.9,29.96,WNW,294,0.0,0.0,86,0.00,,,0.00,meteohub,2013-05-11 01:47:00,
2013-05-10 21:52:00,60.1,55.9,29.96,WNW,294,0.0,0.0,86,0.00,,,0.00,meteohub,2013-05-11 01:52:00,
2013-05-10 21:57:00,59.7,55.6,29.96,WNW,294,0.0,0.0,86,0.00,,,0.00,meteohub,2013-05-11 01:57:00,
2013-05-10 22:02:00,59.7,55.6,29.96,WNW,294,0.0,0.0,86,0.00,,,0.00,meteohub,2013-05-11 02:02:00,
2013-05-10 22:07:00,59.5,55.4,29.96,WNW,294,0.0,0.0,86,0.00,,,0.00,meteohub,2013-05-11 02:07:00,
2013-05-10 22:12:00,59.4,55.4,29.96,WNW,294,0.0,0.0,87,0.00,,,0.00,meteohub,2013-05-11 02:12:00,
2013-05-10 22:17:00,59.2,55.4,29.95,WNW,294,0.0,0.0,87,0.00,,,0.00,meteohub,2013-05-11 02:17:00,
2013-05-10 22:22:00,59.0,55.2,29.95,WNW,294,0.0,0.0,87,0.00,,,0.00,meteohub,2013-05-11 02:22:00,
2013-05-10 22:27:00,58.8,55.2,29.95,WNW,294,0.0,0.0,88,0.00,,,0.00,meteohub,2013-05-11 02:27:00,
2013-05-10 22:32:00,58.6,55.0,29.95,WNW,294,0.0,0.0,88,0.00,,,0.00,meteohub,2013-05-11 02:32:00,
2013-05-10 22:37:00,58.5,54.9,29.95,WNW,294,0.0,0.0,88,0.00,,,0.00,meteohub,2013-05-11 02:37:00,
2013-05-10 22:42:00,58.5,55.2,29.94,WNW,294,0.0,0.0,89,0.00,,,0.00,meteohub,2013-05-11 02:42:00,
2013-05-10 22:47:00,58.3,55.0,29.94,WNW,294,0.0,0.0,89,0.00,,,0.00,meteohub,2013-05-11 02:47:00,
2013-05-10 22:52:00,58.1,54.9,29.94,WNW,294,0.0,0.0,89,0.00,,,0.00,meteohub,2013-05-11 02:52:00,
2013-05-10 22:57:00,57.9,55.0,29.94,WNW,294,0.0,0.0,90,0.00,,,0.00,meteohub,2013-05-11 02:57:00,
2013-05-10 23:02:00,57.7,54.9,29.94,WNW,294,0.0,0.0,90,0.00,,,0.00,meteohub,2013-05-11 03:02:00,
2013-05-10 23:07:00,57.7,54.9,29.94,WNW,294,0.0,0.0,90,0.00,,,0.00,meteohub,2013-05-11 03:07:00,
2013-05-10 23:12:00,57.6,54.7,29.94,WNW,294,0.0,0.0,90,0.00,,,0.00,meteohub,2013-05-11 03:12:00,
2013-05-10 23:17:00,57.4,54.9,29.94,WNW,294,0.0,0.0,91,0.00,,,0.00,meteohub,2013-05-11 03:17:00,
2013-05-10 23:22:00,57.4,54.9,29.94,WNW,294,0.0,0.0,91,0.00,,,0.00,meteohub,2013-05-11 03:22:00,
2013-05-10 23:27:00,57.2,54.7,29.94,WNW,294,0.0,0.0,91,0.00,,,0.00,meteohub,2013-05-11 03:27:00,
2013-05-10 23:32:00,57.0,54.7,29.94,WNW,294,0.0,0.0,92,0.00,,,0.00,meteohub,2013-05-11 03:32:00,
2013-05-10 23:37:00,57.0,54.7,29.93,WNW,294,0.0,0.0,92,0.00,,,0.00,meteohub,2013-05-11 03:37:00,
2013-05-10 23:42:00,57.0,54.7,29.93,WNW,294,0.0,0.0,92,0.00,,,0.00,meteohub,2013-05-11 03:42:00,
2013-05-10 23:47:00,56.8,54.5,29.93,WNW,294,0.0,0.0,92,0.00,,,0.00,meteohub,2013-05-11 03:47:00,
2013-05-10 23:52:00,56.8,54.5,29.93,WNW,294,0.0,0.0,92,0.00,,,0.00,meteohub,2013-05-11 03:52:00,
2013-05-10 23:57:00,56.8,54.5,29.93,WNW,294,0.0,0.0,92,0.00,,,0.00,meteohub,2013-05-11 03:57:00,